Dakota, Illinois
Current Conditions -  °F | °C
As of 6:55 AM on Thursday 27 Nov 2014 (Local Time) from KFEP Reporting Station
Light Snow Light Snow  
Wind Chill: 12°   Ceiling: 3400
Heat Index: 23°   Visibility: 5mi
Dew Point: 19°   Wind: 10mph
Humidity: 86%   Direction: 300°WNW
Pressure: 30.34"   Gusts: NA
Location:  42.39°N, 89.53°W
Report Text: KFEP 271255Z AUTO 30009KT 5SM -SN OVC034 M05/M07 A3034 RMK AO2 T10501070
Loading
Personal Weather Stations






























Interactive Weather Map New forecast layout! Learn more

10-Day Weather Forecast

Advertisements
Track Severe Weather on mobile